aviador You're here:

KBNO Decoded Metar

BURNS in OR, USA
Report Time2018-02-25 10:53:00
UTC Time2018-02-25 11:30:41
Flight Rules vfr VFR
Wind110° at 03 kt
W.Decomp.*RWY 12: 2.6 kt HW 1.4 kt LCW
RWY 03: 1.4 kt HW 2.6 kt RCW
W.Rank110° ranks 36
Current wind is below 110° avg. (5.3)
Visibility9999 m
Phenomena:N/A
Clouds:Few 038 Hf
Few 060 Hf
Expected CloudBase > 400 ft AGL from Temp-Dew spread
CeilingNone
Temp-11°C (ISA -18)
Dew Point-12°C (92% RH)
AAT-15.3°C
QNH1020 hPa
Density Alt1,755 ft
Elevation4,147 ft
Report Wrong Elevation
Raw Report
METAR KBNO 251053Z AUTO 11003KT 10SM FEW038 FEW060 M11/M12 A3011 RMK
AO2 SLP233 T11061117=

Extra information for KBNO:More info

Metar Taf Metar & Taf Last 4 Metars F.Rules Stats Wind Profile Meteogram Temp Stats Airport Information Weather charts Add Link Nearby VenuesMetar ALERT Operation Metar Decoded Social comments

AIRNAV info for KBNO